createdAt,value
2023-05-22T00:01:01.385Z,628.2308
2023-05-22T00:02:04.400Z,626.0000
2023-05-22T00:03:07.323Z,620.0000
2023-05-22T00:04:10.189Z,615.6154
2023-05-22T00:05:13.222Z,617.6154
2023-05-22T00:06:16.073Z,617.3846
2023-05-22T00:07:19.047Z,618.4615
2023-05-22T00:08:21.999Z,620.3846
2023-05-22T00:09:24.934Z,622.4615
2023-05-22T00:10:27.890Z,626.7692
2023-05-22T00:11:30.813Z,627.3846
2023-05-22T00:12:33.753Z,627.8461
2023-05-22T00:13:36.736Z,627.0000
2023-05-22T00:14:39.661Z,627.6923
2023-05-22T00:15:42.606Z,631.4615
2023-05-22T00:16:45.586Z,633.1539
2023-05-22T00:17:48.531Z,634.3077
2023-05-22T00:18:51.541Z,633.6923
2023-05-22T00:19:54.571Z,624.0769
2023-05-22T00:20:57.393Z,623.4615
2023-05-22T00:22:00.355Z,623.5385
2023-05-22T00:23:03.372Z,621.0769
2023-05-22T00:24:06.233Z,621.4615
2023-05-22T00:25:09.215Z,625.4615
2023-05-22T00:26:12.138Z,634.8461
2023-05-22T00:27:15.094Z,639.4615
2023-05-22T00:28:18.033Z,639.2308
2023-05-22T00:29:21.002Z,629.1539
2023-05-22T00:30:23.965Z,626.6923
2023-05-22T00:31:26.904Z,627.0769
2023-05-22T00:32:29.862Z,628.2308
2023-05-22T00:33:32.804Z,626.8461
2023-05-22T00:34:35.763Z,628.0769
2023-05-22T00:35:38.718Z,633.5385
2023-05-22T00:36:41.658Z,633.6923
2023-05-22T00:37:44.607Z,635.1539
2023-05-22T00:38:47.575Z,636.9231
2023-05-22T00:39:50.515Z,634.9231
2023-05-22T00:40:53.484Z,634.3077
2023-05-22T00:41:56.464Z,631.7692
2023-05-22T00:42:59.426Z,630.0769
2023-05-22T00:44:02.332Z,632.9231
2023-05-22T00:45:05.380Z,635.1539
2023-05-22T00:46:08.249Z,636.7692
2023-05-22T00:47:11.200Z,638.0000
2023-05-22T00:48:14.267Z,638.0769
2023-05-22T00:49:17.162Z,639.7692
2023-05-22T00:50:20.114Z,642.0769
2023-05-22T00:51:23.059Z,641.6923
2023-05-22T00:52:26.052Z,637.8461
2023-05-22T00:53:28.990Z,641.2308
2023-05-22T00:54:31.938Z,639.3846
2023-05-22T00:55:34.876Z,639.6154
2023-05-22T00:56:37.818Z,641.3077
2023-05-22T00:57:40.782Z,646.0769
2023-05-22T00:58:43.729Z,643.0769
2023-05-22T00:59:46.685Z,634.2308
2023-05-22T01:00:49.645Z,631.2308
2023-05-22T01:01:52.626Z,627.3077
2023-05-22T01:02:55.699Z,625.6154
2023-05-22T01:03:58.604Z,625.7692
2023-05-22T01:05:01.491Z,626.3846
2023-05-22T01:06:04.414Z,629.0000
2023-05-22T01:07:07.383Z,634.0769
2023-05-22T01:08:10.334Z,634.6154
2023-05-22T01:09:13.321Z,635.9231
2023-05-22T01:10:16.233Z,634.4615
2023-05-22T01:11:19.180Z,636.3077
2023-05-22T01:12:22.118Z,635.5385
2023-05-22T01:13:25.114Z,637.7692
2023-05-22T01:14:28.057Z,640.8461
2023-05-22T01:15:31.010Z,640.3077
2023-05-22T01:16:33.987Z,641.3846
2023-05-22T01:17:36.922Z,643.4615
2023-05-22T01:18:39.846Z,643.0000
2023-05-22T01:19:42.828Z,641.1539
2023-05-22T01:20:48.190Z,642.6923
2023-05-22T01:21:48.750Z,645.2308
2023-05-22T01:22:51.655Z,642.5385
2023-05-22T01:23:54.677Z,638.2308
2023-05-22T01:24:57.563Z,632.9231
2023-05-22T01:26:00.543Z,631.0000
2023-05-22T01:27:03.475Z,627.5385
2023-05-22T01:28:06.465Z,625.5385
2023-05-22T01:29:09.374Z,624.5385
2023-05-22T01:30:12.329Z,622.6154
2023-05-22T01:31:15.288Z,623.1539
2023-05-22T01:32:18.285Z,626.3077
2023-05-22T01:33:21.272Z,629.0000
2023-05-22T01:34:24.147Z,628.3077
2023-05-22T01:35:27.098Z,633.2308
2023-05-22T01:36:30.051Z,634.4615
2023-05-22T01:37:33.060Z,629.4615
2023-05-22T01:38:36.054Z,629.8461
2023-05-22T01:39:38.925Z,636.2308
2023-05-22T01:40:41.895Z,646.6154
2023-05-22T01:41:44.836Z,653.0000
2023-05-22T01:42:47.776Z,661.5385
2023-05-22T01:43:50.734Z,647.4615
2023-05-22T01:44:53.713Z,641.0769
2023-05-22T01:45:56.678Z,641.1539
2023-05-22T01:46:59.584Z,645.5385
2023-05-22T01:48:02.549Z,651.3077
2023-05-22T01:49:05.518Z,651.1539
2023-05-22T01:50:08.416Z,649.0000
2023-05-22T01:51:11.384Z,650.0000
2023-05-22T01:52:14.339Z,645.3077
2023-05-22T01:53:17.292Z,649.3846
2023-05-22T01:54:20.248Z,645.2308
2023-05-22T01:55:23.224Z,638.6154
2023-05-22T01:56:26.156Z,637.6154
2023-05-22T01:57:29.115Z,643.8461
2023-05-22T01:58:32.061Z,650.8461
2023-05-22T01:59:35.018Z,649.4615
2023-05-22T02:00:38.080Z,649.4615
2023-05-22T02:01:40.948Z,654.0000
2023-05-22T02:02:43.942Z,657.8461
2023-05-22T02:03:46.869Z,655.1539
2023-05-22T02:04:49.783Z,657.2308
2023-05-22T02:05:52.718Z,662.2308
2023-05-22T02:06:55.765Z,662.3077
2023-05-22T02:07:58.658Z,659.8461
2023-05-22T02:09:01.580Z,659.7692
2023-05-22T02:10:04.543Z,657.1539
2023-05-22T02:11:07.482Z,654.5385
2023-05-22T02:12:10.464Z,650.7692
2023-05-22T02:13:13.385Z,649.8461
2023-05-22T02:14:16.436Z,650.8461
2023-05-22T02:15:19.302Z,653.3846
2023-05-22T02:16:22.368Z,654.4615
2023-05-22T02:17:25.280Z,655.5385
2023-05-22T02:18:28.159Z,658.8461
2023-05-22T02:19:31.256Z,659.3846
2023-05-22T02:20:34.139Z,659.6154
2023-05-22T02:21:37.043Z,661.3077
2023-05-22T02:22:40.051Z,663.9231
2023-05-22T02:23:42.956Z,674.4615
2023-05-22T02:24:45.890Z,690.3077
2023-05-22T02:25:48.821Z,699.6923
2023-05-22T02:26:51.784Z,694.9231
2023-05-22T02:27:54.730Z,690.7692
2023-05-22T02:28:57.761Z,682.3077
2023-05-22T02:30:00.640Z,675.1539
2023-05-22T02:31:03.762Z,668.9231
2023-05-22T02:32:06.553Z,668.7692
2023-05-22T02:33:09.604Z,673.8461
2023-05-22T02:34:12.469Z,676.3846
2023-05-22T02:35:15.409Z,681.4615
2023-05-22T02:36:18.357Z,685.3846
2023-05-22T02:37:21.292Z,689.8461
2023-05-22T02:38:24.252Z,688.3846
2023-05-22T02:39:27.231Z,686.5385
2023-05-22T02:40:30.226Z,683.0000
2023-05-22T02:41:33.155Z,678.9231
2023-05-22T02:42:36.077Z,674.1539
2023-05-22T02:43:38.997Z,671.3077
2023-05-22T02:44:42.030Z,663.8461
2023-05-22T02:45:44.906Z,664.8461
2023-05-22T02:46:47.940Z,669.3846
2023-05-22T02:47:50.869Z,671.7692
2023-05-22T02:48:53.786Z,675.0769
2023-05-22T02:49:56.733Z,675.4615
2023-05-22T02:50:59.668Z,671.5385
2023-05-22T02:52:02.620Z,665.6923
2023-05-22T02:53:05.601Z,663.6154
2023-05-22T02:54:08.534Z,665.0769
2023-05-22T02:55:11.498Z,666.9231
2023-05-22T02:56:14.442Z,673.8461
2023-05-22T02:57:17.392Z,682.3077
2023-05-22T02:58:20.329Z,694.5385
2023-05-22T02:59:23.289Z,707.9231
2023-05-22T03:00:26.249Z,721.0769
2023-05-22T03:01:29.283Z,725.0000
2023-05-22T03:02:32.229Z,730.3077
2023-05-22T03:03:35.232Z,733.3077
2023-05-22T03:04:38.090Z,734.0000
2023-05-22T03:05:41.012Z,733.3077
2023-05-22T03:06:43.973Z,724.2308
2023-05-22T03:07:48.589Z,712.6154
2023-05-22T03:08:49.855Z,702.0000
2023-05-22T03:09:52.808Z,698.0769
2023-05-22T03:10:55.764Z,703.6923
2023-05-22T03:11:58.718Z,709.3846
2023-05-22T03:13:01.665Z,718.3846
2023-05-22T03:14:04.618Z,718.3077
2023-05-22T03:15:07.566Z,706.5385
2023-05-22T03:16:10.641Z,695.8461
2023-05-22T03:17:13.472Z,683.9231
2023-05-22T03:18:16.414Z,682.1539
2023-05-22T03:19:19.426Z,693.0000
2023-05-22T03:20:22.320Z,720.4615
2023-05-22T03:21:25.265Z,738.0769
2023-05-22T03:22:28.316Z,738.3077
2023-05-22T03:23:31.187Z,725.6154
2023-05-22T03:24:34.136Z,717.1539
2023-05-22T03:25:37.083Z,713.3846
2023-05-22T03:26:40.037Z,708.2308
2023-05-22T03:27:42.991Z,705.2308
2023-05-22T03:28:45.930Z,705.2308
2023-05-22T03:29:48.925Z,705.0769
2023-05-22T03:30:51.820Z,718.3077
2023-05-22T03:31:54.782Z,748.2308
2023-05-22T03:32:57.739Z,753.2308
2023-05-22T03:34:00.773Z,755.6923
2023-05-22T03:35:03.641Z,758.5385
2023-05-22T03:36:06.593Z,740.2308
2023-05-22T03:37:09.547Z,723.4615
2023-05-22T03:38:12.508Z,714.5385
2023-05-22T03:39:15.456Z,704.0000
2023-05-22T03:40:18.412Z,699.3846
2023-05-22T03:41:21.355Z,694.0000
2023-05-22T03:42:24.373Z,693.0769
2023-05-22T03:43:27.363Z,696.2308
2023-05-22T03:44:30.220Z,713.6923
2023-05-22T03:45:33.275Z,743.9231
2023-05-22T03:46:36.173Z,759.9231
2023-05-22T03:47:39.127Z,750.9231
2023-05-22T03:48:42.014Z,734.1539
2023-05-22T03:49:44.964Z,727.9231
2023-05-22T03:50:47.919Z,732.8461
2023-05-22T03:51:50.894Z,729.3077
2023-05-22T03:52:53.830Z,704.0769
2023-05-22T03:53:56.772Z,685.0769
2023-05-22T03:54:59.731Z,676.3846
2023-05-22T03:56:02.670Z,672.6923
2023-05-22T03:57:05.629Z,673.5385
2023-05-22T03:58:08.577Z,680.6923
2023-05-22T03:59:11.548Z,681.9231
2023-05-22T04:00:14.514Z,676.6923
2023-05-22T04:01:17.453Z,674.8461
2023-05-22T04:02:20.513Z,676.3077
2023-05-22T04:03:23.382Z,684.4615
2023-05-22T04:04:26.306Z,682.6923
2023-05-22T04:05:29.566Z,672.6154
2023-05-22T04:06:32.187Z,662.5385
2023-05-22T04:07:35.166Z,660.6923
2023-05-22T04:08:38.126Z,657.8461
2023-05-22T04:09:41.043Z,655.0000
2023-05-22T04:10:44.011Z,652.0000
2023-05-22T04:11:46.953Z,649.6923
2023-05-22T04:12:49.915Z,654.2308
2023-05-22T04:13:52.853Z,657.3077
2023-05-22T04:14:55.885Z,661.4615
2023-05-22T04:15:58.824Z,669.0000
2023-05-22T04:17:01.727Z,667.9231
2023-05-22T04:18:04.685Z,665.6154
2023-05-22T04:19:07.710Z,679.2308
2023-05-22T04:20:10.595Z,683.9231
2023-05-22T04:21:13.622Z,682.5385
2023-05-22T04:22:16.490Z,669.1539
2023-05-22T04:23:19.457Z,662.1539
2023-05-22T04:24:22.410Z,663.0000
2023-05-22T04:25:25.355Z,662.1539
2023-05-22T04:26:28.332Z,661.5385
2023-05-22T04:27:31.251Z,658.0000
2023-05-22T04:28:34.214Z,652.6923
2023-05-22T04:29:37.172Z,655.0769
2023-05-22T04:30:40.589Z,658.0769
2023-05-22T04:31:43.139Z,661.0769
2023-05-22T04:32:46.076Z,667.4615
2023-05-22T04:33:48.978Z,666.2308
2023-05-22T04:34:51.938Z,667.0769
2023-05-22T04:35:54.914Z,668.0000
2023-05-22T04:36:57.880Z,672.2308
2023-05-22T04:38:00.816Z,675.5385
2023-05-22T04:39:03.759Z,675.6154
2023-05-22T04:40:06.719Z,673.8461
2023-05-22T04:41:09.655Z,668.7692
2023-05-22T04:42:12.701Z,662.5385
2023-05-22T04:43:15.584Z,663.0000
2023-05-22T04:44:18.516Z,656.7692
2023-05-22T04:45:21.517Z,654.1539
2023-05-22T04:46:24.454Z,653.4615
2023-05-22T04:47:27.430Z,648.6154
2023-05-22T04:48:30.317Z,649.7692
2023-05-22T04:49:33.268Z,646.2308
2023-05-22T04:50:36.276Z,642.8461
2023-05-22T04:51:39.198Z,635.2308
2023-05-22T04:52:42.133Z,625.7692
2023-05-22T04:53:45.113Z,635.3846
2023-05-22T04:54:48.036Z,651.2308
2023-05-22T04:55:51.077Z,653.6923
2023-05-22T04:56:54.036Z,657.0769
2023-05-22T04:57:56.985Z,657.0000
2023-05-22T04:58:59.940Z,655.3846
2023-05-22T05:00:02.890Z,650.0000
2023-05-22T05:01:05.944Z,648.6923
2023-05-22T05:02:08.932Z,650.2308
2023-05-22T05:03:11.922Z,655.3846
2023-05-22T05:04:14.711Z,655.4615
2023-05-22T05:05:17.659Z,653.1539
2023-05-22T05:06:20.611Z,651.7692
2023-05-22T05:07:23.564Z,647.6923
2023-05-22T05:08:26.507Z,646.6923
2023-05-22T05:09:29.465Z,647.0000
2023-05-22T05:10:32.572Z,645.8461
2023-05-22T05:11:35.379Z,645.3846
2023-05-22T05:12:38.350Z,644.8461
2023-05-22T05:13:41.265Z,646.4615
2023-05-22T05:14:44.258Z,643.9231
2023-05-22T05:15:47.213Z,643.6154
2023-05-22T05:16:50.227Z,643.8461
2023-05-22T05:17:53.197Z,642.3846
2023-05-22T05:18:56.093Z,641.8461
2023-05-22T05:19:59.050Z,638.2308
2023-05-22T05:21:01.957Z,633.0000
2023-05-22T05:22:04.885Z,631.7692
2023-05-22T05:23:07.866Z,630.3077
2023-05-22T05:24:10.834Z,628.3846
2023-05-22T05:25:13.753Z,624.3846
2023-05-22T05:26:16.747Z,621.3077
2023-05-22T05:27:19.640Z,621.6923
2023-05-22T05:28:22.593Z,620.5385
2023-05-22T05:29:25.531Z,623.0000
2023-05-22T05:30:28.491Z,622.3846
2023-05-22T05:31:31.508Z,623.6154
2023-05-22T05:32:34.515Z,626.0769
2023-05-22T05:33:37.358Z,625.2308
2023-05-22T05:34:40.294Z,625.1539
2023-05-22T05:35:43.297Z,628.1539
2023-05-22T05:36:46.242Z,627.7692
2023-05-22T05:37:49.166Z,627.7692
2023-05-22T05:38:52.112Z,626.3846
2023-05-22T05:39:55.121Z,626.4615
2023-05-22T05:40:58.003Z,624.0000
2023-05-22T05:42:00.951Z,623.2308
2023-05-22T05:43:03.888Z,623.1539
2023-05-22T05:44:06.889Z,620.1539
2023-05-22T05:45:09.804Z,618.0000
2023-05-22T05:46:12.851Z,617.3846
2023-05-22T05:47:15.681Z,615.2308
2023-05-22T05:48:18.639Z,615.1539
2023-05-22T05:49:21.612Z,615.2308
2023-05-22T05:50:24.633Z,615.8461
2023-05-22T05:51:27.482Z,615.0000
2023-05-22T05:52:30.443Z,617.4615
2023-05-22T05:53:33.402Z,617.1539
2023-05-22T05:54:36.357Z,618.9231
2023-05-22T05:55:42.190Z,621.3077
2023-05-22T05:56:42.254Z,621.6154
2023-05-22T05:57:45.236Z,623.3077
2023-05-22T05:58:48.165Z,623.5385
2023-05-22T05:59:51.144Z,626.7692
2023-05-22T06:00:54.503Z,629.9231
2023-05-22T06:01:57.008Z,630.5385
2023-05-22T06:03:00.692Z,631.3846
2023-05-22T06:04:03.026Z,635.1539
2023-05-22T06:05:06.683Z,636.3846
2023-05-22T06:06:08.925Z,638.3846
2023-05-22T06:07:12.631Z,641.4615
2023-05-22T06:08:15.354Z,640.4615
2023-05-22T06:09:17.953Z,637.9231
2023-05-22T06:10:21.615Z,634.0769
2023-05-22T06:11:23.595Z,632.7692
2023-05-22T06:12:26.876Z,636.4615
2023-05-22T06:13:30.203Z,635.0769
2023-05-22T06:14:32.444Z,634.7692
2023-05-22T06:15:35.346Z,633.2308
2023-05-22T06:16:38.338Z,628.0769
2023-05-22T06:17:41.455Z,621.4615
2023-05-22T06:18:44.313Z,614.9231
2023-05-22T06:19:47.926Z,614.3846
2023-05-22T06:20:50.220Z,612.7692
2023-05-22T06:21:53.062Z,609.7692
2023-05-22T06:22:56.059Z,611.6154
2023-05-22T06:23:58.942Z,612.0000
2023-05-22T06:25:02.169Z,614.0769
2023-05-22T06:26:04.843Z,614.3077
2023-05-22T06:27:08.148Z,614.6923
2023-05-22T06:28:10.740Z,610.2308
2023-05-22T06:29:14.121Z,607.2308
2023-05-22T06:30:22.372Z,607.0000
2023-05-22T06:31:20.095Z,606.0000
2023-05-22T06:32:22.634Z,604.0769
2023-05-22T06:33:26.892Z,601.6923
2023-05-22T06:34:28.482Z,601.5385
2023-05-22T06:35:31.588Z,603.8461
2023-05-22T06:36:34.335Z,604.2308
2023-05-22T06:37:37.313Z,603.0769
2023-05-22T06:38:40.253Z,601.2308
2023-05-22T06:39:43.255Z,600.2308
2023-05-22T06:40:46.154Z,597.2308
2023-05-22T06:41:49.081Z,591.9231
2023-05-22T06:42:52.060Z,585.2308
2023-05-22T06:43:55.381Z,579.7692
2023-05-22T06:44:57.967Z,573.6154
2023-05-22T06:46:00.899Z,570.6923
2023-05-22T06:47:03.905Z,571.6923
2023-05-22T06:48:06.834Z,569.6923
2023-05-22T06:49:09.789Z,573.7692
2023-05-22T06:50:13.037Z,575.4615
2023-05-22T06:51:15.737Z,571.0000
2023-05-22T06:52:18.566Z,569.0000
2023-05-22T06:53:21.518Z,567.1539
2023-05-22T06:54:24.467Z,564.4615
2023-05-22T06:55:27.441Z,563.2308
2023-05-22T06:56:30.366Z,561.9231
2023-05-22T06:57:33.441Z,561.9231
2023-05-22T06:58:36.376Z,559.9231
2023-05-22T06:59:39.223Z,558.1539
2023-05-22T07:00:42.357Z,552.3846
2023-05-22T07:01:45.224Z,552.0769
2023-05-22T07:02:48.135Z,553.1539
2023-05-22T07:03:51.466Z,553.8461
2023-05-22T07:04:53.982Z,553.2308
2023-05-22T07:05:56.996Z,549.5385
2023-05-22T07:06:59.861Z,550.0000
2023-05-22T07:08:02.814Z,550.4615
2023-05-22T07:09:05.796Z,553.0769
2023-05-22T07:10:08.734Z,551.3077
2023-05-22T07:11:11.825Z,548.6154
2023-05-22T07:12:14.625Z,547.1539
2023-05-22T07:13:17.923Z,543.2308
2023-05-22T07:14:20.834Z,541.3077
2023-05-22T07:15:23.541Z,542.4615
2023-05-22T07:16:26.509Z,543.0769
2023-05-22T07:17:29.418Z,541.3846
2023-05-22T07:18:32.608Z,543.9231
2023-05-22T07:19:35.401Z,539.6154
2023-05-22T07:20:38.664Z,535.6154
2023-05-22T07:21:41.229Z,531.7692
2023-05-22T07:22:44.408Z,529.8461
2023-05-22T07:23:47.122Z,528.5385
2023-05-22T07:24:50.292Z,527.1539
2023-05-22T07:25:53.007Z,524.8461
2023-05-22T07:26:55.995Z,522.3077
2023-05-22T07:27:59.057Z,519.6154
2023-05-22T07:29:01.812Z,517.4615
2023-05-22T07:30:04.983Z,515.3077
2023-05-22T07:31:07.771Z,512.1539
2023-05-22T07:32:10.875Z,510.7692
2023-05-22T07:33:13.645Z,508.9231
2023-05-22T07:34:16.543Z,511.1538
2023-05-22T07:35:19.471Z,512.9231
2023-05-22T07:36:22.469Z,513.6923
2023-05-22T07:37:25.369Z,510.4615
2023-05-22T07:38:28.346Z,504.3846
2023-05-22T07:39:31.360Z,503.0769
2023-05-22T07:40:34.204Z,506.0000
2023-05-22T07:41:37.156Z,512.9231
2023-05-22T07:42:40.116Z,512.0000
2023-05-22T07:43:43.180Z,512.3077
2023-05-22T07:44:46.283Z,512.0769
2023-05-22T07:45:49.073Z,527.4615
2023-05-22T07:46:51.963Z,544.6923
2023-05-22T07:48:57.773Z,524.5385
2023-05-22T07:50:00.726Z,567.6154
2023-05-22T07:51:03.691Z,623.0000
2023-05-22T07:52:06.601Z,597.9231
2023-05-22T07:53:09.547Z,562.0769
2023-05-22T07:54:12.483Z,540.7692
2023-05-22T07:55:15.555Z,538.2308
2023-05-22T07:56:18.366Z,528.0769
2023-05-22T07:57:21.360Z,519.3077
2023-05-22T07:58:24.289Z,510.3846
2023-05-22T07:59:27.218Z,499.7692
2023-05-22T08:00:30.166Z,481.3077
2023-05-22T08:01:33.223Z,476.6923
2023-05-22T08:02:36.144Z,471.4615
2023-05-22T08:03:39.206Z,483.3077
2023-05-22T08:04:42.004Z,485.1538
2023-05-22T08:05:44.864Z,503.0769
2023-05-22T08:06:47.812Z,512.3846
2023-05-22T08:07:50.736Z,510.3846
2023-05-22T08:08:53.702Z,523.1539
2023-05-22T08:09:56.615Z,526.9231
2023-05-22T08:11:03.805Z,522.3846
2023-05-22T08:12:02.550Z,534.3077
2023-05-22T08:13:05.456Z,672.0000
2023-05-22T08:14:08.624Z,731.5385
2023-05-22T08:15:11.370Z,674.6923
2023-05-22T08:16:14.303Z,647.8461
2023-05-22T08:17:17.398Z,610.6154
2023-05-22T08:18:20.846Z,590.0000
2023-05-22T08:19:23.231Z,588.6923
2023-05-22T08:20:26.196Z,546.8461
2023-05-22T08:21:30.172Z,521.9231
2023-05-22T08:22:31.944Z,513.7692
2023-05-22T08:23:35.032Z,488.6923
2023-05-22T08:24:38.352Z,476.5385
2023-05-22T08:25:40.802Z,488.2308
2023-05-22T08:26:43.957Z,525.3846
2023-05-22T08:27:46.765Z,531.0000
2023-05-22T08:28:49.937Z,512.0769
2023-05-22T08:29:52.660Z,509.0000
2023-05-22T08:30:56.214Z,501.5385
2023-05-22T08:31:58.608Z,501.9231
2023-05-22T08:33:01.900Z,499.8462
2023-05-22T08:34:04.384Z,533.9231
2023-05-22T08:35:07.370Z,542.3077
2023-05-22T08:36:10.585Z,534.0769
2023-05-22T08:37:13.220Z,551.1539
2023-05-22T08:38:16.182Z,536.3846
2023-05-22T08:39:19.306Z,515.8461
2023-05-22T08:40:22.388Z,514.6154
2023-05-22T08:41:25.017Z,503.9231
2023-05-22T08:42:27.941Z,481.0000
2023-05-22T08:43:30.910Z,480.5385
2023-05-22T08:44:34.659Z,484.3846
2023-05-22T08:45:36.824Z,486.3846
2023-05-22T08:46:39.744Z,488.6923
2023-05-22T08:47:42.700Z,525.9231
2023-05-22T08:48:45.713Z,562.3077
2023-05-22T08:49:48.581Z,569.3077
2023-05-22T08:50:52.005Z,551.1539
2023-05-22T08:51:54.465Z,523.9231
2023-05-22T08:52:57.419Z,520.6923
2023-05-22T08:54:00.417Z,533.4615
2023-05-22T08:55:03.346Z,576.7692
2023-05-22T08:56:06.422Z,584.4615
2023-05-22T08:57:09.286Z,569.0000
2023-05-22T08:58:12.273Z,537.1539
2023-05-22T08:59:15.883Z,516.5385
2023-05-22T09:00:18.128Z,531.1539
2023-05-22T09:01:21.115Z,507.5385
2023-05-22T09:02:24.095Z,513.6923
2023-05-22T09:03:28.225Z,524.8461
2023-05-22T09:04:30.095Z,525.1539
2023-05-22T09:05:32.943Z,511.4615
2023-05-22T09:06:36.132Z,490.0000
2023-05-22T09:07:38.981Z,463.0000
2023-05-22T09:08:42.270Z,448.3077
2023-05-22T09:09:45.000Z,437.4615
2023-05-22T09:10:47.790Z,431.6154
2023-05-22T09:11:50.725Z,424.8462
2023-05-22T09:12:53.716Z,417.7692
2023-05-22T09:13:56.570Z,419.4615
2023-05-22T09:14:59.562Z,419.8462
2023-05-22T09:16:02.545Z,420.6154
2023-05-22T09:17:05.544Z,420.0769
2023-05-22T09:18:08.428Z,438.6154
2023-05-22T09:19:11.413Z,544.6154
2023-05-22T09:20:14.431Z,678.3846
2023-05-22T09:21:28.906Z,623.0000
2023-05-22T09:22:21.780Z,549.4615
2023-05-22T09:23:23.705Z,532.9231
2023-05-22T09:24:26.127Z,553.1539
2023-05-22T09:25:29.068Z,569.0769
2023-05-22T09:26:31.995Z,547.5385
2023-05-22T09:27:34.991Z,579.8461
2023-05-22T09:28:37.936Z,600.0000
2023-05-22T09:29:40.859Z,551.8461
2023-05-22T09:30:43.980Z,511.0769
2023-05-22T09:31:46.907Z,475.2308
2023-05-22T09:32:49.776Z,453.5385
2023-05-22T09:33:52.687Z,442.8462
2023-05-22T09:34:55.629Z,439.0000
2023-05-22T09:35:58.713Z,438.9231
2023-05-22T09:37:01.546Z,437.2308
2023-05-22T09:38:04.510Z,452.0769
2023-05-22T09:39:07.430Z,628.6154
2023-05-22T09:40:10.417Z,766.3077
2023-05-22T09:41:13.393Z,810.0000
2023-05-22T09:42:16.356Z,819.9231
2023-05-22T09:43:19.272Z,816.6923
2023-05-22T09:44:22.344Z,745.5385
2023-05-22T09:45:25.224Z,688.3077
2023-05-22T09:46:28.212Z,681.0000
2023-05-22T09:47:31.198Z,647.0000
2023-05-22T09:48:34.055Z,573.0000
2023-05-22T09:49:36.968Z,556.4615
2023-05-22T09:50:40.145Z,562.9231
2023-05-22T09:51:43.020Z,605.2308
2023-05-22T09:52:45.845Z,643.3077
2023-05-22T09:53:48.819Z,649.3846
2023-05-22T09:54:51.764Z,627.5385
2023-05-22T09:55:54.690Z,553.6154
2023-05-22T09:56:57.640Z,596.0769
2023-05-22T09:58:00.589Z,586.6154
2023-05-22T09:59:03.553Z,528.6923
2023-05-22T10:00:06.508Z,478.9231
2023-05-22T10:01:09.481Z,492.0000
2023-05-22T10:02:12.423Z,571.1539
2023-05-22T10:03:15.337Z,608.3077
2023-05-22T10:04:18.352Z,617.6923
2023-05-22T10:05:21.266Z,620.5385
2023-05-22T10:06:24.202Z,620.8461
2023-05-22T10:07:27.213Z,612.3846
2023-05-22T10:08:30.128Z,587.1539
2023-05-22T10:09:33.113Z,502.6154
2023-05-22T10:10:36.050Z,490.6923
2023-05-22T10:11:38.987Z,497.1538
2023-05-22T10:12:41.926Z,478.0000
2023-05-22T10:13:44.989Z,469.7692
2023-05-22T10:14:47.839Z,466.5385
2023-05-22T10:15:50.822Z,457.9231
2023-05-22T10:16:53.910Z,450.7692
2023-05-22T10:17:56.710Z,449.1538
2023-05-22T10:18:59.701Z,451.2308
2023-05-22T10:20:02.766Z,443.9231
2023-05-22T10:21:05.674Z,437.6154
2023-05-22T10:22:08.489Z,449.3077
2023-05-22T10:23:11.545Z,464.6154
2023-05-22T10:24:14.455Z,470.1538
2023-05-22T10:25:17.376Z,484.3077
2023-05-22T10:26:20.311Z,495.1538
2023-05-22T10:27:23.274Z,516.7692
2023-05-22T10:28:26.209Z,521.3846
2023-05-22T10:29:29.195Z,513.3846
2023-05-22T10:30:32.123Z,507.7692
2023-05-22T10:31:35.070Z,500.4615
2023-05-22T10:32:38.045Z,496.3077
2023-05-22T10:33:41.033Z,488.4615
2023-05-22T10:34:43.999Z,474.3077
2023-05-22T10:35:46.876Z,472.8462
2023-05-22T10:36:49.830Z,481.2308
2023-05-22T10:37:52.775Z,490.8462
2023-05-22T10:38:55.858Z,485.6154
2023-05-22T10:39:58.722Z,469.3846
2023-05-22T10:41:01.657Z,474.3077
2023-05-22T10:42:04.585Z,489.0769
2023-05-22T10:43:07.535Z,488.8462
2023-05-22T10:44:10.491Z,463.1538
2023-05-22T10:45:10.828Z,442.5000
2023-05-22T10:46:11.741Z,435.5385
2023-05-22T10:47:14.558Z,441.7692
2023-05-22T10:48:17.483Z,453.0769
2023-05-22T10:49:20.406Z,466.0769
2023-05-22T10:50:23.389Z,473.9231
2023-05-22T10:51:26.346Z,488.1538
2023-05-22T10:52:29.262Z,492.1538
2023-05-22T10:53:32.215Z,488.6923
2023-05-22T10:54:35.271Z,485.8462
2023-05-22T10:55:38.137Z,480.6154
2023-05-22T10:56:41.091Z,455.4615
2023-05-22T10:57:44.029Z,438.7692
2023-05-22T10:58:46.978Z,432.9231
2023-05-22T10:59:49.919Z,444.2308
2023-05-22T11:00:52.905Z,446.5385
2023-05-22T11:01:55.899Z,475.7692
2023-05-22T11:03:10.021Z,502.3077
2023-05-22T11:04:01.729Z,524.5385
2023-05-22T11:05:04.754Z,519.4615
2023-05-22T11:06:07.714Z,468.6154
2023-05-22T11:07:10.588Z,436.0769
2023-05-22T11:08:13.581Z,420.6154
2023-05-22T11:09:16.490Z,415.9231
2023-05-22T11:10:19.719Z,422.1538
2023-05-22T11:11:22.402Z,408.7692
2023-05-22T11:12:25.419Z,404.6154
2023-05-22T11:13:29.305Z,404.2308
2023-05-22T11:14:31.298Z,403.5385
2023-05-22T11:15:34.244Z,410.4615
2023-05-22T11:16:37.195Z,428.5385
2023-05-22T11:17:40.236Z,452.1538
2023-05-22T11:18:45.138Z,470.0000
2023-05-22T11:19:46.051Z,475.7692
2023-05-22T11:20:49.011Z,475.1538
2023-05-22T11:21:51.959Z,470.9231
2023-05-22T11:22:54.901Z,473.7692
2023-05-22T11:23:57.955Z,470.8462
2023-05-22T11:25:00.844Z,463.6923
2023-05-22T11:26:03.846Z,452.5385
2023-05-22T11:27:06.753Z,463.0769
2023-05-22T11:28:09.676Z,470.8462
2023-05-22T11:29:12.653Z,475.7692
2023-05-22T11:30:15.602Z,480.0769
2023-05-22T11:31:18.902Z,476.6154
2023-05-22T11:32:21.564Z,463.1538
2023-05-22T11:33:24.532Z,459.2308
2023-05-22T11:34:27.480Z,461.3846
2023-05-22T11:35:30.560Z,457.0000
2023-05-22T11:36:33.377Z,445.1538
2023-05-22T11:37:36.369Z,436.4615
2023-05-22T11:38:39.262Z,430.4615
2023-05-22T11:39:42.353Z,430.8462
2023-05-22T11:40:45.180Z,430.6154
2023-05-22T11:41:48.217Z,431.3077
2023-05-22T11:42:51.086Z,429.3846
2023-05-22T11:43:54.062Z,429.2308
2023-05-22T11:44:57.151Z,439.4615
2023-05-22T11:45:59.977Z,456.4615
2023-05-22T11:47:02.900Z,456.3077
2023-05-22T11:48:05.905Z,443.8462
2023-05-22T11:49:08.830Z,434.3846
2023-05-22T11:50:11.791Z,434.1538
2023-05-22T11:51:14.741Z,436.9231
2023-05-22T11:52:17.654Z,445.0769
2023-05-22T11:53:20.715Z,451.9231
2023-05-22T11:54:23.556Z,453.4615
2023-05-22T11:55:26.503Z,448.9231
2023-05-22T11:56:29.438Z,447.8462
2023-05-22T11:57:32.532Z,449.4615
2023-05-22T11:58:35.467Z,443.5385
2023-05-22T11:59:38.387Z,433.6154
2023-05-22T12:00:41.553Z,432.8462
2023-05-22T12:01:44.291Z,438.2308
2023-05-22T12:02:47.439Z,438.8462
2023-05-22T12:03:50.193Z,438.0769
2023-05-22T12:04:53.056Z,438.1538
2023-05-22T12:05:56.038Z,435.0000
2023-05-22T12:06:58.962Z,431.0769
2023-05-22T12:08:01.963Z,430.3077
2023-05-22T12:09:04.855Z,429.6923
2023-05-22T12:10:07.865Z,435.4615
2023-05-22T12:11:10.748Z,446.7692
2023-05-22T12:12:13.732Z,443.3846
2023-05-22T12:13:16.738Z,444.6923
2023-05-22T12:14:19.611Z,450.0769
2023-05-22T12:15:22.546Z,447.7692
2023-05-22T12:16:25.623Z,448.3077
2023-05-22T12:17:28.534Z,446.7692
2023-05-22T12:18:31.423Z,438.0769
2023-05-22T12:19:34.429Z,433.3846
2023-05-22T12:20:37.500Z,431.3846